Latest Weather Observations for Trangie

IDN60801

Issued at 7:22 pm EST Wednesday 12 August 2020 (issued every 10 minutes, with the page automatically refreshed every 10 minutes)

About weather observations | Map of weather stations | Latest weather observations for NSW | Other Formats
Station Details ID: 051049 Name: TRANGIE RESEARCH STATION AWS Lat: -31.99 Lon: 147.95 Height: 215.0 m
Data from the previous 72 hours. | See also: Recent months at Trangie
Date/Time
EST
Temp
°C
App
Temp
°C
Dew
Point
°C
Rel
Hum
%
Delta-T
°C
Wind Press
QNH
hPa
Press
MSL
hPa
Rain since
9am
mm
Dir  Spd
km/h
Gust
km/h
Spd
kts
Gust
kts
12/07:00pm 15.0 13.8 10.4 74 2.4 NE 7 9 4 5 1011.9 1012.1 0.0
12/06:30pm 15.1 14.0 10.5 74 2.4 NE 7 11 4 6 1011.7 1011.9 0.0
12/06:00pm 15.6 14.4 10.4 71 2.8 NE 7 9 4 5 1011.5 1011.7 0.0
12/05:30pm 16.7 15.6 10.5 67 3.3 NNE 7 9 4 5 1011.3 1011.4 0.0
12/05:00pm 18.2 16.7 10.6 61 4.1 N 9 11 5 6 1011.2 1011.3 0.0
12/04:30pm 19.3 17.0 10.6 57 4.8 N 13 20 7 11 1011.2 1011.3 0.0
12/04:00pm 19.9 17.3 10.6 55 5.1 N 15 20 8 11 1011.0 1011.1 0.0
12/03:30pm 20.2 17.0 10.0 52 5.5 N 17 24 9 13 1010.8 1010.9 0.0
12/03:00pm 20.4 17.4 10.8 54 5.3 N 17 24 9 13 1010.9 1011.0 0.0
12/02:30pm 20.6 17.6 10.7 53 5.5 N 17 26 9 14 1011.2 1011.3 0.0
12/02:00pm 20.0 16.8 10.1 53 5.4 N 17 24 9 13 1011.4 1011.5 0.0
12/01:30pm 20.2 16.7 10.9 55 5.1 N 20 30 11 16 1011.7 1011.9 0.0
12/01:00pm 19.9 16.2 10.0 53 5.4 N 20 30 11 16 1011.9 1012.1 0.0
12/12:30pm 19.8 16.1 10.2 54 5.2 N 20 28 11 15 1012.5 1012.7 0.0
12/12:00pm 19.5 15.8 9.4 52 5.4 N 19 26 10 14 1012.9 1013.1 0.0
12/11:30am 17.9 14.7 10.0 60 4.2 NNE 17 26 9 14 1013.6 1013.7 0.0
12/11:00am 18.4 15.1 9.5 56 4.7 NNE 17 28 9 15 1014.1 1014.2 0.0
12/10:30am 17.6 14.8 11.2 66 3.5 NNE 17 26 9 14 1014.5 1014.6 0.0
12/10:00am 15.7 12.0 9.6 67 3.2 NE 19 24 10 13 1015.1 1015.2 0.0
12/09:30am 14.6 11.6 9.4 71 2.7 NE 15 24 8 13 1015.6 1015.8 0.0
12/09:00am 14.3 12.3 10.1 76 2.2 NE 11 17 6 9 1016.0 1016.2 0.6
12/08:30am 12.1 10.7 9.7 85 1.2 ENE 7 11 4 6 1016.3 1016.5 0.6
12/08:00am 10.7 9.6 9.9 95 0.4 ENE 6 9 3 5 1016.5 1016.7 0.6
12/07:30am 9.6 8.1 8.5 93 0.5 E 6 9 3 5 1016.4 1016.6 0.6
12/07:00am 9.8 8.0 7.9 88 0.9 N 7 11 4 6 1016.4 1016.6 0.2
12/06:30am 9.8 7.5 7.6 86 1.1 NE 9 13 5 7 1015.9 1016.1 0.0
12/06:00am 9.7 7.8 7.6 87 1.0 ENE 7 11 4 6 1015.7 1015.9 0.0
12/05:30am 9.6 7.3 7.5 87 1.0 ENE 9 15 5 8 1015.4 1015.6 0.0
12/05:00am 9.2 7.2 7.3 88 0.9 E 7 11 4 6 1015.3 1015.4 0.0
12/04:30am 9.0 7.2 7.1 88 0.9 E 6 9 3 5 1015.3 1015.4 0.0
12/04:00am 9.4 8.7 7.0 85 1.1 CALM 0 6 0 3 1015.5 1015.7 0.0
12/03:30am 9.5 7.1 7.1 85 1.1 ENE 9 13 5 7 1015.1 1015.2 0.0
12/03:00am 9.4 7.0 7.2 86 1.0 ENE 9 13 5 7 1015.2 1015.3 0.0
12/02:30am 9.3 6.9 7.1 86 1.0 ENE 9 13 5 7 1015.8 1016.0 0.0
12/02:00am 9.0 6.6 6.8 86 1.0 ENE 9 11 5 6 1016.2 1016.4 0.0
12/01:30am 9.2 6.8 6.8 85 1.1 ENE 9 11 5 6 1016.4 1016.6 0.0
12/01:00am 9.5 7.4 6.8 83 1.3 ENE 7 9 4 5 1016.6 1016.8 0.0
12/12:30am 9.3 6.8 6.7 84 1.2 ENE 9 13 5 7 1016.1 1016.3 0.0
12/12:00am 8.9 6.8 6.5 85 1.1 ENE 7 11 4 6 1016.4 1016.6 0.0
 
Date/Time
EST
Temp
°C
App
Temp
°C
Dew
Point
°C
Rel
Hum
%
Delta-T
°C
Wind Press
QNH
hPa
Press
MSL
hPa
Rain since
9am
mm
Dir  Spd
km/h
Gust
km/h
Spd
kts
Gust
kts
11/11:30pm 8.9 6.8 6.7 86 1.0 E 7 11 4 6 1016.6 1016.8 0.0
11/11:00pm 8.2 7.5 7.0 92 0.6 CALM 0 0 0 0 1017.3 1017.5 0.0
11/10:30pm 8.0 6.5 6.8 92 0.6 SE 4 6 2 3 1016.9 1017.1 0.0
11/10:00pm 8.1 7.3 6.6 90 0.7 CALM 0 0 0 0 1017.6 1017.8 0.0
11/09:30pm 9.1 7.2 6.7 85 1.1 E 6 11 3 6 1016.7 1016.9 0.0
11/09:00pm 9.0 7.0 7.1 88 0.9 E 7 9 4 5 1017.0 1017.2 0.0
11/08:30pm 8.5 7.8 6.8 89 0.8 CALM 0 0 0 0 1017.6 1017.8 0.0
11/08:00pm 8.7 7.9 6.7 87 0.9 CALM 0 0 0 0 1017.3 1017.5 0.0
11/07:30pm 9.0 8.2 6.3 83 1.3 CALM 0 6 0 3 1017.2 1017.4 0.0
11/07:00pm 10.0 8.5 6.7 80 1.6 E 4 7 2 4 1016.9 1017.1 0.0
11/06:30pm 10.0 9.2 6.5 79 1.7 CALM 0 6 0 3 1016.5 1016.7 0.0
11/06:00pm 10.6 9.2 7.3 80 1.6 ESE 4 7 2 4 1016.6 1016.8 0.0
11/05:30pm 12.0 11.5 7.7 75 2.1 CALM 0 0 0 0 1017.4 1017.6 0.0
11/05:00pm 12.8 12.0 6.6 66 3.0 CALM 0 0 0 0 1017.4 1017.6 0.0
11/04:30pm 14.4 13.4 5.5 55 4.3 CALM 0 6 0 3 1017.6 1017.8 0.0
11/04:00pm 14.8 12.6 6.4 57 4.1 NNE 7 11 4 6 1017.4 1017.6 0.0
11/03:30pm 15.1 12.8 5.9 54 4.5 NE 7 9 4 5 1017.3 1017.5 0.0
11/03:00pm 15.5 12.5 6.0 53 4.6 NE 11 17 6 9 1017.5 1017.7 0.0
11/02:30pm 15.7 12.8 6.4 54 4.6 ENE 11 17 6 9 1017.5 1017.7 0.0
11/02:00pm 15.5 12.4 5.7 52 4.7 E 11 19 6 10 1017.5 1017.7 0.0
11/01:30pm 15.9 13.2 5.8 51 4.9 ENE 9 13 5 7 1018.5 1018.6 0.0
11/01:00pm 15.7 13.6 6.7 55 4.4 E 7 13 4 7 1019.1 1019.2 0.0
11/12:30pm 15.4 12.2 5.0 50 5.0 E 11 17 6 9 1019.6 1019.8 0.0
11/12:00pm 15.9 12.1 5.8 51 4.9 ENE 15 20 8 11 1020.0 1020.2 0.0
11/11:30am 15.5 11.5 6.5 55 4.4 ENE 17 22 9 12 1020.4 1020.6 0.0
11/11:00am 15.1 11.2 6.9 58 4.0 ENE 17 26 9 14 1020.9 1021.1 0.0
11/10:30am 13.9 9.1 5.8 58 3.9 ENE 20 30 11 16 1021.4 1021.6 0.0
11/10:00am 13.3 8.8 6.2 62 3.4 ENE 19 28 10 15 1021.3 1021.5 0.0
11/09:30am 12.2 8.5 6.5 68 2.7 E 15 28 8 15 1021.3 1021.5 0.0
11/09:00am 10.3 6.9 6.1 75 2.0 E 13 22 7 12 1021.8 1022.0 0.0
11/08:30am 8.8 5.7 5.4 79 1.6 E 11 17 6 9 1021.8 1022.0 0.0
11/08:00am 7.2 4.3 4.7 84 1.1 E 9 15 5 8 1021.4 1021.6 0.0
11/07:30am 5.7 2.2 3.7 87 0.9 E 11 15 6 8 1021.2 1021.4 0.0
11/07:00am 4.4 1.2 3.1 91 0.5 E 9 13 5 7 1020.7 1020.9 0.0
11/06:30am 4.4 1.2 3.1 91 0.5 E 9 15 5 8 1020.3 1020.5 0.0
11/06:00am 4.4 1.2 3.2 92 0.5 E 9 15 5 8 1020.1 1020.3 0.0
11/05:30am 4.6 1.8 3.4 92 0.5 E 7 11 4 6 1020.3 1020.5 0.0
11/05:00am 4.7 1.5 3.2 90 0.6 E 9 13 5 7 1020.0 1020.2 0.0
11/04:30am 5.1 2.0 3.4 89 0.7 E 9 13 5 7 1020.0 1020.2 0.0
11/04:00am 5.4 2.3 3.7 89 0.7 E 9 13 5 7 1019.8 1020.0 0.0
11/03:30am 5.4 2.3 3.7 89 0.7 E 9 13 5 7 1019.6 1019.8 0.0
11/03:00am 5.5 2.5 4.2 91 0.6 E 9 11 5 6 1019.9 1020.1 0.0
11/02:30am 5.8 3.2 4.3 90 0.6 E 7 11 4 6 1020.0 1020.2 0.0
11/02:00am 6.0 3.5 4.6 91 0.6 E 7 11 4 6 1020.1 1020.3 0.0
11/01:30am 6.2 3.3 4.8 91 0.6 E 9 13 5 7 1020.4 1020.6 0.0
11/01:00am 6.0 3.7 5.6 97 0.2 E 7 11 4 6 1020.6 1020.8 0.0
11/12:30am 5.7 3.3 5.1 96 0.3 ESE 7 11 4 6 1020.7 1020.9 0.0
11/12:00am 5.7 3.4 5.0 95 0.3 E 6 9 3 5 1020.7 1020.9 0.0
 
Date/Time
EST
Temp
°C
App
Temp
°C
Dew
Point
°C
Rel
Hum
%
Delta-T
°C
Wind Press
QNH
hPa
Press
MSL
hPa
Rain since
9am
mm
Dir  Spd
km/h
Gust
km/h
Spd
kts
Gust
kts
10/11:30pm 6.1 4.3 5.4 95 0.3 ESE 4 6 2 3 1020.8 1021.0 0.0
10/11:00pm 6.7 5.0 5.8 94 0.4 SE 4 7 2 4 1020.7 1020.9 0.0
10/10:30pm 6.9 4.8 5.8 93 0.5 SE 6 9 3 5 1020.7 1020.9 0.0
10/10:00pm 7.2 5.1 5.7 90 0.7 SSE 6 7 3 4 1020.6 1020.8 0.0
10/09:30pm 8.0 5.8 6.1 88 0.9 SSE 7 11 4 6 1020.5 1020.7 0.0
10/09:00pm 8.5 6.5 6.3 86 1.0 S 6 9 3 5 1020.4 1020.6 0.0
10/08:30pm 9.0 6.6 6.8 86 1.0 S 9 11 5 6 1020.0 1020.2 0.0
10/08:00pm 9.1 7.1 6.9 86 1.0 S 7 9 4 5 1019.8 1020.0 0.0
10/07:30pm 9.2 7.2 7.2 87 1.0 S 7 11 4 6 1019.5 1019.7 0.0
10/07:00pm 9.7 7.9 7.1 84 1.2 S 6 7 3 4 1019.2 1019.3 0.0
10/06:30pm 11.0 9.1 7.7 80 1.6 SSW 7 11 4 6 1019.2 1019.3 0.0
10/06:00pm 11.4 9.2 7.7 78 1.8 S 9 11 5 6 1018.9 1019.0 0.0
10/05:30pm 12.8 10.6 7.7 71 2.5 SSW 9 11 5 6 1018.8 1018.9 0.0
10/05:00pm 15.1 12.6 8.1 63 3.5 SSW 11 17 6 9 1018.4 1018.5 0.0
10/04:30pm 15.9 12.6 8.2 60 3.9 S 15 24 8 13 1017.7 1017.9 0.0
10/04:00pm 15.8 12.3 7.3 57 4.3 S 15 22 8 12 1017.5 1017.7 0.0
10/03:30pm 17.0 13.7 8.2 56 4.5 SSW 15 22 8 12 1017.4 1017.6 0.0
10/03:00pm 17.3 14.5 8.4 56 4.6 S 13 19 7 10 1017.5 1017.7 0.0
10/02:30pm 17.4 14.5 8.0 54 4.8 SSE 13 20 7 11 1017.4 1017.6 0.0
10/02:00pm 17.1 13.7 7.5 53 4.9 S 15 22 8 12 1017.4 1017.6 0.0
10/01:30pm 17.0 13.7 7.9 55 4.7 SSE 15 28 8 15 1017.5 1017.7 0.0
10/01:00pm 16.8 13.4 9.2 61 4.0 SSE 17 28 9 15 1017.5 1017.7 0.0
10/12:30pm 16.6 13.2 9.3 62 3.8 S 17 30 9 16 1017.6 1017.8 0.0
10/12:00pm 15.3 10.8 7.1 58 4.1 S 20 28 11 15 1018.0 1018.2 0.0
10/11:30am 15.3 11.1 8.1 62 3.7 SSE 20 30 11 16 1018.2 1018.3 0.0
10/11:00am 15.0 10.6 7.5 61 3.7 S 20 37 11 20 1018.0 1018.2 0.0
10/10:30am 13.8 8.9 6.9 63 3.4 SSE 22 41 12 22 1018.0 1018.2 0.0
10/10:00am 13.2 8.3 7.0 66 3.0 S 22 33 12 18 1018.0 1018.2 0.0
10/09:30am 12.4 7.9 6.9 69 2.7 S 20 35 11 19 1017.6 1017.8 0.0
10/09:00am 11.6 7.0 6.3 70 2.5 SSE 20 33 11 18 1017.4 1017.6 0.2
10/08:30am 10.4 6.3 6.4 76 1.9 SSE 17 32 9 17 1016.9 1017.1 0.2
10/08:00am 9.3 5.1 5.9 79 1.6 SSE 17 26 9 14 1016.5 1016.7 0.2
10/07:30am 8.4 3.6 5.7 83 1.2 SSE 20 30 11 16 1016.2 1016.4 0.2
10/07:00am 8.1 3.5 5.7 85 1.1 S 19 32 10 17 1016.0 1016.2 0.2
10/06:30am 7.2 3.7 5.5 89 0.8 SSE 13 20 7 11 1015.5 1015.7 0.2
10/06:00am 7.3 3.1 5.8 90 0.7 SSW 17 24 9 13 1015.4 1015.6 0.2
10/05:30am 7.5 3.0 6.1 91 0.6 SSW 19 24 10 13 1014.8 1014.9 0.2
10/05:00am 7.8 3.4 6.6 92 0.6 SW 19 26 10 14 1014.4 1014.5 0.2
10/04:30am 8.0 3.7 7.2 95 0.4 SW 19 26 10 14 1014.0 1014.1 0.2
10/04:00am 8.5 4.5 8.4 99 0.0 SW 19 26 10 14 1013.8 1013.9 0.2
10/03:30am 8.2 4.5 8.1 99 0.0 SW 17 20 9 11 1013.7 1013.8 0.2
10/03:00am 8.8 4.3 8.7 99 0.0 SW 22 30 12 16 1013.7 1013.8 0.2
10/02:30am 8.6 4.7 8.5 99 0.0 SW 19 24 10 13 1013.6 1013.7 0.2
10/02:00am 8.8 4.9 8.7 99 0.0 SW 19 26 10 14 1013.7 1013.8 0.2
10/01:30am 8.6 5.4 8.5 99 0.0 SW 15 20 8 11 1014.0 1014.1 0.2
10/01:00am 8.1 5.6 8.0 99 0.0 WSW 11 15 6 8 1014.3 1014.4 0.2
10/12:30am 8.1 4.8 8.0 99 0.0 WSW 15 19 8 10 1014.3 1014.4 0.2
10/12:00am 8.2 5.3 8.1 99 0.0 WSW 13 17 7 9 1014.4 1014.5 0.2
 
Date/Time
EST
Temp
°C
App
Temp
°C
Dew
Point
°C
Rel
Hum
%
Delta-T
°C
Wind Press
QNH
hPa
Press
MSL
hPa
Rain since
9am
mm
Dir  Spd
km/h
Gust
km/h
Spd
kts
Gust
kts
09/11:30pm 8.1 4.4 8.0 99 0.0 WSW 17 20 9 11 1014.7 1014.8 0.2
09/11:00pm 8.0 3.9 7.9 99 0.0 WSW 19 24 10 13 1014.8 1014.9 0.2
09/10:30pm 7.9 3.7 7.6 98 0.1 WSW 19 26 10 14 1015.0 1015.1 0.2
09/10:00pm 7.6 3.3 7.2 97 0.2 WSW 19 24 10 13 1014.9 1015.0 0.2
09/09:30pm 7.1 3.8 6.2 94 0.4 SW 13 15 7 8 1015.0 1015.1 0.2
09/09:00pm 7.7 3.3 6.5 92 0.6 WSW 19 26 10 14 1015.0 1015.1 0.2
09/08:30pm 7.9 3.9 6.7 92 0.6 WSW 17 26 9 14 1015.1 1015.2 0.2
09/08:00pm 7.4 4.4 6.0 91 0.6 WSW 11 13 6 7 1015.0 1015.1 0.2
09/07:30pm 7.5 4.5 6.0 90 0.7 WSW 11 15 6 8 1014.9 1015.0 0.2

Other formats

Comma delimited format used in spreadsheet applications
http://www.bom.gov.au/fwo/IDN60801/IDN60801.95710.axf

JavaScript Object Notation format (JSON) in row-major order
http://www.bom.gov.au/fwo/IDN60801/IDN60801.95710.json

Data quality

Most of these data are generated automatically and are frequently updated. Quality checks on data are not normally performed. It is possible for incorrect values to appear. Refer to information at About Latest Weather Observations and please check the disclaimer before using these data.